Time;durP1;ratioP1;P1;durP2;ratioP2;P2;SDS_P1;SDS_P2;PMS_P1;PMS_P2;Temp;Humidity;BMP_temperature;BMP_pressure;BME280_temperature;BME280_humidity;BME280_pressure;Samples;Min_cycle;Max_cycle;Signal;HPM_P1;HPM_P2
2021/06/14 00:02:11;;;;;;;3.17;1.75;;;;;;;17.18;88.88;100751.63;1804527;79;21183;-72
2021/06/14 00:04:44;;;;;;;5.45;1.65;;;;;;;17.16;88.87;100747.45;1805065;79;21791;-73
2021/06/14 00:07:19;;;;;;;1.82;1.45;;;;;;;17.14;89.01;100758.98;1803418;79;21474;-70
2021/06/14 00:09:52;;;;;;;2.52;1.80;;;;;;;17.13;89.19;100759.30;1803980;79;21330;-73
2021/06/14 00:12:24;;;;;;;5.53;2.02;;;;;;;17.13;89.16;100764.91;1804442;79;21870;-72
2021/06/14 00:14:57;;;;;;;5.00;1.80;;;;;;;17.15;89.19;100766.84;1803588;78;21356;-71
2021/06/14 00:17:30;;;;;;;3.58;1.57;;;;;;;17.20;89.10;100766.77;1805032;79;21313;-71
2021/06/14 00:20:03;;;;;;;5.05;2.05;;;;;;;17.23;88.97;100764.20;1804419;79;21321;-73
2021/06/14 00:22:36;;;;;;;8.00;1.85;;;;;;;17.25;88.79;100763.31;1804256;79;21229;-72
2021/06/14 00:25:10;;;;;;;7.92;1.87;;;;;;;17.24;88.67;100774.28;1804619;79;21178;-72
2021/06/14 00:27:43;;;;;;;6.17;1.80;;;;;;;17.22;88.45;100756.92;1804576;79;21633;-70
2021/06/14 00:30:18;;;;;;;7.80;1.92;;;;;;;17.21;88.19;100760.87;1804953;79;21191;-74
2021/06/14 00:32:51;;;;;;;9.40;1.80;;;;;;;17.19;87.95;100754.70;1803487;78;21854;-77
2021/06/14 00:35:24;;;;;;;6.37;1.55;;;;;;;17.13;88.09;100757.31;1804260;79;21171;-74
2021/06/14 00:37:58;;;;;;;4.97;1.80;;;;;;;17.07;87.79;100761.91;1792217;79;21304;-72
2021/06/14 00:40:31;;;;;;;3.25;1.62;;;;;;;17.02;88.10;100759.98;1804755;79;21739;-73
2021/06/14 00:43:06;;;;;;;3.83;1.40;;;;;;;17.02;88.08;100764.78;1803263;79;21333;-75
2021/06/14 00:45:48;;;;;;;3.02;1.42;;;;;;;16.92;87.96;100762.95;1793426;79;21313;-76
2021/06/14 00:48:21;;;;;;;3.67;1.72;;;;;;;16.91;88.33;100773.91;1804028;79;21187;-72
2021/06/14 00:50:59;;;;;;;8.50;2.17;;;;;;;16.89;88.56;100776.74;1793753;79;21321;-72
2021/06/14 00:53:41;;;;;;;6.90;1.60;;;;;;;16.89;88.66;100775.34;1811723;78;21823;-73
2021/06/14 00:56:21;;;;;;;10.80;1.90;;;;;;;16.90;88.73;100784.02;1737560;81;21899;-75
2021/06/14 00:58:54;;;;;;;4.10;1.77;;;;;;;16.89;88.66;100778.14;1836135;78;21309;-73
2021/06/14 01:01:28;;;;;;;9.10;2.27;;;;;;;16.84;88.73;100772.59;1838286;78;21238;-72
2021/06/14 01:04:02;;;;;;;8.48;2.27;;;;;;;16.80;88.87;100773.77;1767031;81;21369;-72
2021/06/14 01:06:36;;;;;;;4.75;1.80;;;;;;;16.80;88.90;100774.32;1767116;81;21807;-75
2021/06/14 01:09:08;;;;;;;5.20;2.22;;;;;;;16.78;88.77;100769.59;1767162;81;21736;-72
2021/06/14 01:12:00;;;;;;;18.82;2.98;;;;;;;16.80;88.99;100769.56;1767018;81;21337;-72
2021/06/14 01:15:00;;;;;;;8.20;1.92;;;;;;;16.82;88.98;100768.68;1766959;81;21353;-72
2021/06/14 01:17:43;;;;;;;4.42;1.80;;;;;;;16.76;88.71;100764.86;1767227;81;21883;-72
2021/06/14 01:20:47;;;;;;;4.08;2.12;;;;;;;16.69;88.82;100765.20;1764824;81;21878;-69
2021/06/14 01:24:04;;;;;;;6.45;2.33;;;;;;;16.71;89.19;100768.53;1805524;78;21309;-73
2021/06/14 01:26:48;;;;;;;2.52;2.17;;;;;;;16.74;89.26;100767.10;1804561;79;21324;-64
2021/06/14 01:29:21;;;;;;;8.05;2.08;;;;;;;16.78;89.17;100765.38;1803051;79;21312;-69
2021/06/14 01:31:54;;;;;;;4.35;2.08;;;;;;;16.72;89.11;100767.98;1806164;79;21206;-71
2021/06/14 01:34:29;;;;;;;;;;;;;;;16.70;88.98;100771.66;1824490;78;21321;-70
2021/06/14 01:37:01;;;;;;;3.53;1.70;;;;;;;16.65;88.79;100771.12;1838407;78;20183;-73
2021/06/14 01:39:37;;;;;;;;;;;;;;;16.65;89.17;100770.31;1769971;81;21372;-75
2021/06/14 01:42:10;;;;;;;2.95;1.70;;;;;;;16.65;89.26;100762.72;1767118;81;20172;-73
2021/06/14 01:44:44;;;;;;;2.47;2.05;;;;;;;16.63;89.27;100763.59;1785397;79;21215;-74
2021/06/14 01:47:17;;;;;;;6.10;1.95;;;;;;;16.66;89.13;100764.97;1767434;81;21329;-70
2021/06/14 01:49:50;;;;;;;2.55;1.70;;;;;;;16.66;89.11;100763.56;1767090;81;21336;-71
2021/06/14 01:52:24;;;;;;;2.62;1.75;;;;;;;16.68;88.99;100762.69;1764229;81;21452;-74
2021/06/14 01:54:57;;;;;;;2.30;2.00;;;;;;;16.69;89.02;100766.61;1754700;82;21835;-74
2021/06/14 01:57:43;;;;;;;4.80;1.80;;;;;;;16.73;89.07;100763.48;1758933;81;21321;-73
2021/06/14 02:00:23;;;;;;;3.87;1.62;;;;;;;16.78;88.90;100766.78;1789370;80;21226;-72
2021/06/14 02:02:57;;;;;;;2.67;1.85;;;;;;;16.79;88.81;100760.88;1773200;80;21660;-71
2021/06/14 02:05:41;;;;;;;3.90;2.12;;;;;;;16.79;88.58;100762.28;1768375;80;22831;-73
2021/06/14 02:08:16;;;;;;;5.17;2.85;;;;;;;16.79;88.63;100760.03;1753039;80;21191;-73
2021/06/14 02:10:49;;;;;;;2.98;1.90;;;;;;;16.79;88.63;100760.88;1772363;80;21194;-73
2021/06/14 02:13:21;;;;;;;;;;;;;;;16.84;88.61;100764.18;1768657;80;21793;-72
2021/06/14 02:15:54;;;;;;;2.58;1.75;;;;;;;16.86;88.34;100753.48;1766235;80;20283;-70
2021/06/14 02:18:26;;;;;;;4.97;2.22;;;;;;;16.86;88.04;100752.08;1772109;80;21265;-72
2021/06/14 02:21:00;;;;;;;4.42;2.40;;;;;;;16.87;87.92;100757.40;1775121;80;21223;-70
2021/06/14 02:23:33;;;;;;;2.73;2.10;;;;;;;16.85;87.85;100756.03;1767338;81;21809;-73
2021/06/14 02:26:07;;;;;;;3.98;2.12;;;;;;;16.83;87.79;100754.92;1809462;78;22778;-72
2021/06/14 02:28:42;;;;;;;6.15;2.42;;;;;;;16.83;87.85;100761.11;1803796;78;21808;-72
2021/06/14 02:31:15;;;;;;;4.80;2.55;;;;;;;16.80;87.85;100757.48;1811254;78;21309;-72
2021/06/14 02:33:47;;;;;;;7.75;2.83;;;;;;;16.83;88.23;100759.13;1814195;78;21872;-72
2021/06/14 02:36:20;;;;;;;;;;;;;;;16.86;88.08;100747.88;1746617;81;21425;-74
2021/06/14 02:38:54;;;;;;;4.28;2.55;;;;;;;16.85;87.86;100747.61;1743443;81;20260;-74
2021/06/14 02:41:26;;;;;;;3.60;1.80;;;;;;;16.80;87.75;100752.73;1811740;78;21310;-70
2021/06/14 02:44:04;;;;;;;8.95;2.00;;;;;;;16.78;87.77;100754.16;1809557;78;21303;-72
2021/06/14 02:46:36;;;;;;;4.08;2.05;;;;;;;16.76;87.83;100752.23;1812031;78;21219;-72
2021/06/14 02:49:15;;;;;;;5.53;2.55;;;;;;;16.78;87.91;100750.80;1812373;78;21325;-74
2021/06/14 02:51:48;;;;;;;2.50;1.98;;;;;;;16.80;88.00;100746.27;1802209;78;21401;-70
2021/06/14 02:54:32;;;;;;;3.57;2.07;;;;;;;16.84;87.95;100748.75;1746188;81;21699;-72
2021/06/14 02:57:07;;;;;;;2.33;2.00;;;;;;;16.83;87.93;100745.69;1814075;78;21317;-73
2021/06/14 02:59:41;;;;;;;4.30;2.58;;;;;;;16.84;88.03;100748.20;1791286;78;21228;-69
2021/06/14 03:02:15;;;;;;;8.98;2.60;;;;;;;16.94;88.23;100744.42;1808652;78;21811;-70
2021/06/14 03:04:48;;;;;;;6.57;2.30;;;;;;;17.05;88.14;100743.97;1808520;78;21372;-69
2021/06/14 03:07:26;;;;;;;4.28;2.72;;;;;;;17.09;87.88;100749.25;1808963;78;21284;-72
2021/06/14 03:09:59;;;;;;;5.03;3.02;;;;;;;17.08;87.69;100741.13;1804967;78;21697;-73
2021/06/14 03:12:32;;;;;;;4.90;2.93;;;;;;;17.10;87.79;100740.25;1814372;78;21727;-71
2021/06/14 03:15:06;;;;;;;5.17;2.60;;;;;;;17.10;87.69;100748.67;1799275;79;21544;-69
2021/06/14 03:17:40;;;;;;;4.65;2.62;;;;;;;17.18;87.77;100753.62;1800757;79;21224;-73
2021/06/14 03:20:13;;;;;;;4.03;2.98;;;;;;;17.23;87.60;100753.53;1810950;78;21203;-73
2021/06/14 03:22:47;;;;;;;3.47;2.77;;;;;;;17.28;87.73;100747.84;1807091;78;21371;-69
2021/06/14 03:25:21;;;;;;;3.75;2.62;;;;;;;17.29;87.56;100753.16;1808665;78;21903;-70
2021/06/14 03:27:53;;;;;;;9.17;2.93;;;;;;;17.30;87.28;100751.17;1819071;78;21335;-73
2021/06/14 03:30:27;;;;;;;5.80;2.75;;;;;;;17.28;87.29;100766.09;1800735;78;21293;-70
2021/06/14 03:32:59;;;;;;;5.37;3.02;;;;;;;17.28;87.27;100759.07;1808684;78;21338;-70
2021/06/14 03:35:33;;;;;;;5.80;3.27;;;;;;;17.29;87.14;100759.33;1798386;79;21302;-70
2021/06/14 03:38:06;;;;;;;4.97;2.98;;;;;;;17.31;87.26;100762.10;1778458;79;21301;-71
2021/06/14 03:40:38;;;;;;;6.78;2.98;;;;;;;17.34;87.10;100757.30;1799690;78;21301;-69
2021/06/14 03:43:11;;;;;;;7.53;3.10;;;;;;;17.36;86.80;100761.19;1805434;79;21840;-71
2021/06/14 03:45:44;;;;;;;7.43;2.73;;;;;;;17.38;86.73;100763.17;1809598;78;21183;-73
2021/06/14 03:48:16;;;;;;;4.90;3.20;;;;;;;17.37;86.44;100775.52;1814585;78;21330;-73
2021/06/14 03:50:54;;;;;;;7.67;3.00;;;;;;;17.33;86.30;100773.88;1803234;79;21317;-73
2021/06/14 03:53:31;;;;;;;8.50;3.00;;;;;;;17.30;86.39;100777.28;1800747;78;21299;-69
2021/06/14 03:56:04;;;;;;;4.87;2.80;;;;;;;17.29;86.50;100778.98;1804046;78;21319;-69
2021/06/14 03:58:38;;;;;;;4.60;2.70;;;;;;;17.29;86.51;100773.36;1810799;78;21172;-70
2021/06/14 04:01:11;;;;;;;5.28;2.75;;;;;;;17.28;86.51;100784.33;1812225;78;21294;-70
2021/06/14 04:03:46;;;;;;;6.20;2.52;;;;;;;17.26;86.41;100788.84;1810916;78;21173;-70
2021/06/14 04:06:18;;;;;;;8.35;2.98;;;;;;;17.24;86.20;100784.69;1805445;79;21180;-72
2021/06/14 04:08:51;;;;;;;8.70;3.83;;;;;;;17.24;86.02;100788.31;1809955;78;21164;-69
2021/06/14 04:11:24;;;;;;;3.77;2.70;;;;;;;17.21;85.77;100780.52;1808672;78;21812;-69
2021/06/14 04:13:57;;;;;;;5.05;3.30;;;;;;;17.22;85.84;100784.98;1808833;78;21835;-82
2021/06/14 04:16:30;;;;;;;8.18;2.40;;;;;;;17.19;85.95;100792.59;1807397;78;21306;-69
2021/06/14 04:19:03;;;;;;;8.53;4.10;;;;;;;17.18;86.03;100793.73;1806235;78;21294;-73
2021/06/14 04:21:36;;;;;;;5.40;3.00;;;;;;;17.16;86.31;100789.55;1794811;79;21723;-71
2021/06/14 04:24:09;;;;;;;3.92;2.92;;;;;;;17.15;86.63;100783.13;1800025;78;21669;-70
2021/06/14 04:26:42;;;;;;;5.85;2.77;;;;;;;17.12;86.64;100790.73;1801754;79;21306;-65
2021/06/14 04:29:15;;;;;;;4.87;2.70;;;;;;;17.06;86.84;100784.10;1809983;78;21364;-66
2021/06/14 04:31:47;;;;;;;4.87;2.60;;;;;;;17.01;87.17;100787.78;1803200;78;21364;-67
2021/06/14 04:34:21;;;;;;;6.22;2.90;;;;;;;16.97;87.53;100785.89;1795870;79;21172;-68
2021/06/14 04:36:54;;;;;;;4.37;2.90;;;;;;;16.98;87.78;100787.55;1808201;78;21704;-64
2021/06/14 04:39:26;;;;;;;7.83;2.62;;;;;;;16.96;87.96;100783.64;1792123;78;21330;-64
2021/06/14 04:41:59;;;;;;;3.45;2.40;;;;;;;17.01;88.08;100782.76;1822795;78;21380;-65
2021/06/14 04:44:32;;;;;;;3.75;2.50;;;;;;;17.04;88.05;100784.39;1736131;81;21337;-63
2021/06/14 04:47:05;;;;;;;7.28;2.20;;;;;;;17.06;87.84;100793.92;1805075;79;21349;-67
2021/06/14 04:49:38;;;;;;;6.83;3.45;;;;;;;17.05;87.39;100797.28;1805166;79;21245;-64
2021/06/14 04:52:11;;;;;;;7.93;2.73;;;;;;;17.08;87.20;100801.46;1748444;81;21329;-64
2021/06/14 04:54:44;;;;;;;4.40;2.30;;;;;;;17.08;87.06;100812.69;1805355;79;21269;-73
2021/06/14 04:57:16;;;;;;;12.45;2.67;;;;;;;17.12;87.20;100823.00;1804500;79;21393;-67
2021/06/14 04:59:49;;;;;;;6.65;3.00;;;;;;;17.18;87.18;100823.20;1805755;79;21344;-74
2021/06/14 05:02:21;;;;;;;6.20;2.80;;;;;;;17.22;86.86;100820.63;1804810;78;21301;-71
2021/06/14 05:04:54;;;;;;;7.92;3.55;;;;;;;17.25;86.66;100815.83;1805006;79;21309;-64
2021/06/14 05:07:27;;;;;;;3.92;3.37;;;;;;;17.25;86.56;100806.00;1804044;79;21391;-67
2021/06/14 05:10:00;;;;;;;4.97;2.55;;;;;;;17.25;86.63;100804.60;1813869;78;21364;-72
2021/06/14 05:12:32;;;;;;;6.35;3.17;;;;;;;17.28;86.81;100809.59;1741399;81;21255;-74
2021/06/14 05:15:06;;;;;;;5.87;3.35;;;;;;;17.28;86.81;100809.59;1748395;81;21353;-71
2021/06/14 05:17:39;;;;;;;6.50;2.87;;;;;;;17.36;86.94;100806.09;1776319;80;21366;-72
2021/06/14 05:20:13;;;;;;;2.92;2.17;;;;;;;17.36;86.78;100813.97;1765593;80;21325;-72
2021/06/14 05:22:46;;;;;;;3.98;3.17;;;;;;;17.38;86.75;100807.50;1802516;79;21241;-66
2021/06/14 05:25:19;;;;;;;5.90;3.15;;;;;;;17.33;86.78;100807.57;1803348;79;21364;-68
2021/06/14 05:27:51;;;;;;;4.00;3.30;;;;;;;17.31;87.18;100801.98;1805050;79;21325;-71
2021/06/14 05:30:25;;;;;;;7.57;3.10;;;;;;;17.29;87.42;100798.08;1803312;79;21356;-78
2021/06/14 05:32:59;;;;;;;3.98;2.47;;;;;;;17.29;87.32;100796.67;1798080;79;21385;-69
2021/06/14 05:35:32;;;;;;;;;;;;;;;17.27;87.14;100800.36;1805420;79;21195;-76
2021/06/14 05:38:04;;;;;;;4.78;2.98;;;;;;;17.24;86.66;100800.13;1808829;78;20237;-75
2021/06/14 05:40:37;;;;;;;3.45;2.52;;;;;;;17.25;86.66;100795.59;1803859;79;21826;-76
2021/06/14 05:43:10;;;;;;;4.03;2.67;;;;;;;17.28;86.41;100803.42;1814709;78;21281;-74
2021/06/14 05:45:42;;;;;;;7.90;2.83;;;;;;;17.33;86.54;100809.53;1767363;80;21384;-74
2021/06/14 05:48:19;;;;;;;4.45;2.25;;;;;;;17.38;86.63;100829.96;1760310;80;21278;-74
2021/06/14 05:50:51;;;;;;;2.92;2.40;;;;;;;17.46;86.99;100842.50;1749551;81;21447;-79
2021/06/14 05:53:24;;;;;;;5.25;2.40;;;;;;;17.56;87.11;100840.96;1821757;79;21182;-75
2021/06/14 05:55:57;;;;;;;4.72;2.27;;;;;;;17.64;86.84;100844.48;1752012;82;21334;-74
2021/06/14 05:58:30;;;;;;;3.10;2.45;;;;;;;17.70;86.92;100851.70;1822119;78;21830;-74
2021/06/14 06:01:03;;;;;;;3.60;2.80;;;;;;;17.79;86.94;100856.91;1821963;78;21660;-74
2021/06/14 06:03:36;;;;;;;4.05;2.27;;;;;;;17.92;86.97;100840.69;1752199;82;21322;-75
2021/06/14 06:06:08;;;;;;;5.50;2.40;;;;;;;17.98;86.26;100836.66;1752154;82;21202;-74
2021/06/14 06:08:41;;;;;;;5.28;3.08;;;;;;;18.00;85.96;100841.39;1822043;78;21203;-74
2021/06/14 06:11:14;;;;;;;6.72;2.95;;;;;;;17.95;86.07;100848.48;1821866;78;21724;-74
2021/06/14 06:13:47;;;;;;;7.53;3.17;;;;;;;17.97;86.33;100860.25;1821753;78;21219;-75
2021/06/14 06:16:22;;;;;;;4.67;2.15;;;;;;;18.03;86.37;100863.25;1821801;79;21497;-74
2021/06/14 06:18:53;;;;;;;;;;;;;;;18.06;86.33;100852.81;1824782;79;21310;-73
2021/06/14 06:21:25;;;;;;;6.12;2.83;;;;;;;18.05;86.36;100849.16;1821695;79;20215;-75
2021/06/14 06:23:59;;;;;;;7.28;2.52;;;;;;;18.11;86.63;100863.98;1751991;82;21430;-74
2021/06/14 06:26:31;;;;;;;;;;;;;;;18.15;86.50;100862.20;1824427;78;21168;-74
2021/06/14 06:29:04;;;;;;;3.70;2.30;;;;;;;18.24;86.49;100868.81;1821732;78;20175;-74
2021/06/14 06:31:38;;;;;;;4.05;2.60;;;;;;;18.31;86.24;100866.47;1821823;78;21480;-75
2021/06/14 06:34:12;;;;;;;5.17;2.63;;;;;;;18.40;86.04;100861.83;1822026;78;21341;-73
2021/06/14 06:36:47;;;;;;;3.50;2.40;;;;;;;18.43;85.55;100859.79;1821855;78;21211;-74
2021/06/14 06:39:20;;;;;;;4.62;2.08;;;;;;;18.47;85.46;100853.83;1752109;82;21431;-74
2021/06/14 06:41:53;;;;;;;4.53;2.12;;;;;;;18.50;85.03;100847.56;1822036;79;21373;-75
2021/06/14 06:44:26;;;;;;;10.70;3.25;;;;;;;18.50;85.03;100847.56;1752030;82;21401;-75
2021/06/14 06:47:01;;;;;;;4.70;3.05;;;;;;;18.55;84.68;100860.14;1821668;79;21186;-74
2021/06/14 06:49:34;;;;;;;9.13;3.80;;;;;;;18.57;84.66;100862.05;1825644;78;21203;-74
2021/06/14 06:52:07;;;;;;;14.10;3.45;;;;;;;18.64;84.85;100860.52;1827406;78;21321;-74
2021/06/14 06:54:40;;;;;;;11.48;3.37;;;;;;;18.72;84.61;100865.42;1760151;81;21345;-75
2021/06/14 06:57:13;;;;;;;11.10;2.67;;;;;;;18.78;84.22;100864.18;1838290;77;21194;-75
2021/06/14 06:59:46;;;;;;;6.85;2.98;;;;;;;18.87;83.83;100872.73;1838350;78;21834;-75
2021/06/14 07:02:18;;;;;;;4.07;2.60;;;;;;;18.89;83.41;100877.51;1766998;81;21194;-76
2021/06/14 07:04:51;;;;;;;4.40;2.12;;;;;;;18.95;83.16;100869.23;1838379;78;22002;-73
2021/06/14 07:07:24;;;;;;;5.53;2.07;;;;;;;19.00;82.57;100874.17;1767222;81;21842;-75
2021/06/14 07:09:58;;;;;;;4.67;2.50;;;;;;;19.04;82.40;100882.27;1838066;77;22075;-75
2021/06/14 07:12:34;;;;;;;3.70;2.45;;;;;;;19.11;81.96;100879.02;1838102;78;21385;-75
2021/06/14 07:15:12;;;;;;;4.92;2.20;;;;;;;19.13;81.16;100880.38;1837954;78;21328;-73
2021/06/14 07:17:44;;;;;;;3.40;2.05;;;;;;;19.14;80.43;100885.45;1838051;78;21696;-73
2021/06/14 07:20:17;;;;;;;3.70;2.10;;;;;;;19.16;80.69;100891.59;1842589;78;21321;-74
2021/06/14 07:22:50;;;;;;;5.67;1.98;;;;;;;19.21;80.43;100886.70;1767057;81;21707;-77
2021/06/14 07:25:23;;;;;;;5.23;2.47;;;;;;;19.24;80.25;100888.06;1838284;77;21424;-74
2021/06/14 07:27:55;;;;;;;5.37;2.12;;;;;;;19.28;80.57;100894.19;1748562;81;21383;-73
2021/06/14 07:30:31;;;;;;;5.25;1.82;;;;;;;19.30;80.20;100901.74;1766398;81;21253;-73
2021/06/14 07:33:04;;;;;;;3.00;1.75;;;;;;;19.30;79.82;100892.45;1767058;81;21818;-74
2021/06/14 07:35:38;;;;;;;4.30;2.20;;;;;;;19.32;79.83;100895.21;1767093;81;21183;-74
2021/06/14 07:38:12;;;;;;;5.90;2.27;;;;;;;19.36;79.88;100889.78;1767016;81;21336;-73
2021/06/14 07:40:44;;;;;;;5.42;2.20;;;;;;;19.39;79.84;100897.03;1767126;81;21754;-75
2021/06/14 07:43:18;;;;;;;4.70;2.30;;;;;;;19.43;79.73;100904.28;1767435;81;21435;-74
2021/06/14 07:45:50;;;;;;;3.60;2.35;;;;;;;19.45;79.53;100907.63;1766941;81;21979;-74
2021/06/14 07:48:23;;;;;;;3.10;2.07;;;;;;;19.47;78.94;100906.73;1836210;77;21368;-74
2021/06/14 07:50:57;;;;;;;3.98;2.50;;;;;;;19.51;78.75;100910.01;1766972;80;21253;-78
2021/06/14 07:53:29;;;;;;;3.62;2.20;;;;;;;19.55;78.81;100910.22;1767621;81;21198;-73
2021/06/14 07:56:06;;;;;;;4.13;2.47;;;;;;;19.67;78.67;100916.15;1767343;81;21190;-77
2021/06/14 07:58:38;;;;;;;5.35;2.00;;;;;;;19.67;78.67;100916.15;1766854;81;21678;-72
2021/06/14 08:01:11;;;;;;;6.60;2.40;;;;;;;19.70;77.66;100916.94;1766664;81;21261;-76
2021/06/14 08:03:47;;;;;;;4.35;2.60;;;;;;;19.70;77.36;100921.17;1767074;81;21289;-75
2021/06/14 08:06:18;;;;;;;4.30;2.30;;;;;;;19.69;76.91;100926.55;1766835;81;21250;-75
2021/06/14 08:08:51;;;;;;;2.60;1.50;;;;;;;19.66;76.84;100928.58;1767309;81;21332;-74
2021/06/14 08:11:24;;;;;;;;;;;;;;;19.63;75.91;100924.99;1769686;81;21826;-74
2021/06/14 08:13:58;;;;;;;6.05;1.90;;;;;;;19.61;76.37;100928.68;1766628;81;20183;-75
2021/06/14 08:16:39;;;;;;;3.87;1.77;;;;;;;19.59;76.21;100932.39;1746206;81;21321;-74
2021/06/14 08:19:23;;;;;;;9.98;2.40;;;;;;;19.63;76.49;100928.63;1766636;81;21692;-76
2021/06/14 08:27:11;;;;;;;3.27;1.75;;;;;;;19.90;76.49;100939.03;1766735;81;21305;-75
2021/06/14 08:29:43;;;;;;;4.00;1.75;;;;;;;20.03;75.69;100944.65;1766833;81;21700;-74
2021/06/14 08:32:16;;;;;;;5.20;1.80;;;;;;;20.25;74.99;100941.06;1767131;81;21715;-78
2021/06/14 08:34:49;;;;;;;4.15;1.77;;;;;;;20.25;74.99;100941.06;1766733;81;21201;-73
2021/06/14 08:37:22;;;;;;;;;;;;;;;20.37;74.38;100942.16;1769253;81;21190;-75
2021/06/14 08:39:54;;;;;;;1.85;1.70;;;;;;;20.50;73.68;100943.27;1766681;81;20184;-75
2021/06/14 08:42:27;;;;;;;7.08;1.90;;;;;;;20.56;73.46;100940.57;1767324;81;21257;-76
2021/06/14 08:45:00;;;;;;;3.45;1.87;;;;;;;20.62;73.06;100938.73;1766587;81;21230;-75
2021/06/14 08:47:32;;;;;;;4.03;1.70;;;;;;;20.71;72.60;100943.84;1767311;81;21815;-74
2021/06/14 08:50:07;;;;;;;1.65;1.30;;;;;;;20.74;72.12;100940.95;1768068;81;21289;-75
2021/06/14 08:52:40;;;;;;;6.33;1.90;;;;;;;20.74;71.93;100945.19;1821626;77;21194;-74
2021/06/14 08:55:14;;;;;;;3.37;1.70;;;;;;;20.76;71.67;100951.34;1739702;82;21805;-73
2021/06/14 08:57:46;;;;;;;2.10;1.70;;;;;;;20.80;71.67;100958.02;1761115;81;21203;-74
2021/06/14 09:00:25;;;;;;;3.70;1.67;;;;;;;20.90;71.49;100952.15;1739873;82;21337;-74
2021/06/14 09:02:58;;;;;;;2.62;1.77;;;;;;;20.98;71.74;100959.83;1763579;81;21457;-73
2021/06/14 09:05:32;;;;;;;2.17;1.65;;;;;;;21.06;71.34;100961.86;1739836;82;21211;-74
2021/06/14 09:08:08;;;;;;;3.47;1.45;;;;;;;21.09;71.05;100964.87;1763383;81;21313;-75
2021/06/14 09:10:41;;;;;;;2.22;1.52;;;;;;;21.13;70.50;100960.81;1763190;81;21175;-76
2021/06/14 09:13:25;;;;;;;6.58;1.40;;;;;;;21.10;70.38;100952.41;1824627;78;21178;-74
2021/06/14 09:16:13;;;;;;;4.33;1.50;;;;;;;21.09;70.08;100962.64;1824741;78;21680;-74
2021/06/14 09:18:46;;;;;;;3.12;1.47;;;;;;;21.06;70.09;100963.27;1824683;78;21249;-73
2021/06/14 09:21:21;;;;;;;2.40;1.60;;;;;;;21.05;70.32;100958.79;1822082;78;21360;-75
2021/06/14 09:23:56;;;;;;;2.35;1.35;;;;;;;21.09;70.62;100965.47;1740245;82;21376;-74
2021/06/14 09:26:38;;;;;;;2.30;1.75;;;;;;;21.14;69.73;100968.13;1763476;81;21349;-74
2021/06/14 09:29:15;;;;;;;2.37;1.62;;;;;;;21.18;70.10;100974.81;1738886;82;21341;-75
2021/06/14 09:31:51;;;;;;;2.60;1.52;;;;;;;21.21;69.93;100977.00;1823729;78;21226;-74
2021/06/14 09:34:39;;;;;;;3.70;2.15;;;;;;;21.20;69.36;100979.55;1824665;78;21758;-76
2021/06/14 09:37:14;;;;;;;3.50;1.77;;;;;;;21.18;69.15;100974.24;1739992;82;21202;-74
2021/06/14 09:39:49;;;;;;;3.37;1.65;;;;;;;21.17;69.25;100974.56;1819497;79;21791;-74
2021/06/14 09:45:09;;;;;;;3.45;1.70;;;;;;;21.17;68.97;100971.73;1824737;78;21313;-75
2021/06/14 09:47:41;;;;;;;3.58;1.70;;;;;;;21.14;68.66;100971.80;1733224;82;21875;-80
2021/06/14 09:50:19;;;;;;;3.25;1.52;;;;;;;21.15;68.79;100978.30;1827615;78;21305;-80
2021/06/14 09:53:13;;;;;;;4.20;1.72;;;;;;;21.21;68.85;100981.24;1824752;78;21680;-74
2021/06/14 09:55:46;;;;;;;2.62;1.67;;;;;;;21.26;68.29;100974.86;1735254;82;21226;-74
2021/06/14 09:58:21;;;;;;;;;;;;;;;21.32;68.59;100976.39;1740780;82;21356;-71
2021/06/14 10:01:02;;;;;;;2.77;1.67;;;;;;;21.35;68.32;100984.23;1742250;81;20579;-72
2021/06/14 10:03:46;;;;;;;7.50;1.87;;;;;;;21.35;68.59;100983.38;1730922;81;21388;-66
2021/06/14 10:06:35;;;;;;;;;;;;;;;21.27;68.31;100987.83;1735184;81;21337;-70
2021/06/14 10:09:17;;;;;;;2.67;2.10;;;;;;;21.16;68.68;100979.95;1760555;81;20592;-71
2021/06/14 10:11:50;;;;;;;4.20;1.80;;;;;;;21.04;69.20;100984.77;1758552;79;21185;-79
2021/06/14 10:14:22;;;;;;;2.98;2.00;;;;;;;21.00;69.07;100978.69;1802067;79;21165;-74
2021/06/14 10:17:00;;;;;;;4.17;1.57;;;;;;;20.98;69.65;100984.66;1770727;80;21367;-73
2021/06/14 10:19:37;;;;;;;3.87;1.77;;;;;;;20.97;69.47;100992.05;1769121;80;21253;-77
2021/06/14 10:22:10;;;;;;;4.00;1.60;;;;;;;20.93;69.30;100982.55;1770893;80;21371;-73
2021/06/14 10:24:43;;;;;;;2.10;1.40;;;;;;;20.88;69.58;100982.67;1774465;81;21193;-74
2021/06/14 10:27:16;;;;;;;6.35;1.65;;;;;;;20.85;70.05;100984.12;1765194;80;21355;-74
2021/06/14 10:29:48;;;;;;;2.15;1.55;;;;;;;20.86;70.42;100988.60;1762321;79;21248;-75
2021/06/14 10:32:20;;;;;;;4.37;1.87;;;;;;;20.87;71.01;100987.48;1768105;80;21320;-74
2021/06/14 10:34:54;;;;;;;4.10;2.05;;;;;;;20.90;70.60;100981.80;1770558;80;21331;-76
2021/06/14 10:37:27;;;;;;;4.95;1.57;;;;;;;20.93;70.37;100985.38;1778378;80;21408;-76
2021/06/14 10:40:00;;;;;;;2.45;1.40;;;;;;;20.99;70.64;100984.94;1779287;80;21332;-75
2021/06/14 10:42:32;;;;;;;3.33;1.20;;;;;;;21.07;70.11;100980.47;1779106;80;21312;-77
2021/06/14 10:45:06;;;;;;;3.05;1.45;;;;;;;21.16;69.79;100984.20;1779020;79;21376;-79
2021/06/14 10:47:42;;;;;;;5.67;1.62;;;;;;;21.27;69.88;100980.76;1779186;80;21209;-73
2021/06/14 10:50:20;;;;;;;2.47;1.50;;;;;;;21.40;69.42;100979.01;1778988;80;21221;-73
2021/06/14 10:52:55;;;;;;;2.00;1.50;;;;;;;21.50;68.23;100973.89;1778907;79;21325;-77
2021/06/14 10:55:29;;;;;;;3.27;1.60;;;;;;;21.57;68.36;100974.25;1779125;80;21719;-77
2021/06/14 10:58:05;;;;;;;6.55;1.90;;;;;;;21.67;67.86;100976.83;1778973;80;21348;-77
2021/06/14 11:00:38;;;;;;;4.62;1.32;;;;;;;21.74;67.68;100984.25;1778896;80;21340;-75
2021/06/14 11:03:13;;;;;;;;;;;;;;;21.77;66.42;100982.77;1781526;80;21182;-75
2021/06/14 11:05:51;;;;;;;4.97;1.57;;;;;;;21.76;66.77;100983.93;1778962;80;20246;-78
2021/06/14 11:08:24;;;;;;;2.77;1.50;;;;;;;21.76;67.04;100982.52;1778524;80;21833;-77
2021/06/14 11:11:04;;;;;;;1.95;1.40;;;;;;;21.72;66.24;100975.84;1778942;80;21403;-77
2021/06/14 11:13:49;;;;;;;2.45;1.55;;;;;;;21.70;66.59;100978.17;1778885;79;21249;-73
2021/06/14 11:16:23;;;;;;;4.03;1.50;;;;;;;21.67;66.75;100985.31;1779252;80;21237;-76
2021/06/14 11:19:04;;;;;;;2.12;1.57;;;;;;;21.61;66.32;100974.42;1778912;80;21324;-75
2021/06/14 11:21:39;;;;;;;4.17;2.05;;;;;;;21.57;66.61;100977.67;1779060;80;21373;-77
2021/06/14 11:24:12;;;;;;;4.03;1.70;;;;;;;21.50;67.13;100975.30;1779135;80;21332;-73
2021/06/14 11:26:45;;;;;;;3.50;1.77;;;;;;;21.49;67.65;100972.80;1778910;80;21336;-73
2021/06/14 11:29:20;;;;;;;4.90;1.60;;;;;;;21.49;67.92;100968.56;1779361;80;21332;-73
2021/06/14 11:32:02;;;;;;;1.92;1.22;;;;;;;21.48;67.87;100979.62;1776143;80;21818;-71
2021/06/14 11:34:42;;;;;;;3.45;1.47;;;;;;;21.47;67.78;100979.37;1786466;80;21874;-75
2021/06/14 11:37:16;;;;;;;3.45;1.67;;;;;;;21.50;68.31;100983.79;1793691;80;21250;-73
2021/06/14 11:40:00;;;;;;;5.45;1.72;;;;;;;21.58;68.25;100984.99;1783718;79;21802;-74
2021/06/14 11:42:49;;;;;;;1.40;1.30;;;;;;;21.62;68.06;100976.09;1778491;80;21826;-74
2021/06/14 11:45:31;;;;;;;2.17;1.35;;;;;;;21.65;67.38;100977.68;1768756;80;21667;-73
2021/06/14 11:48:06;;;;;;;4.00;2.15;;;;;;;21.66;67.22;100968.63;1779109;80;21340;-74
2021/06/14 11:50:41;;;;;;;3.87;1.85;;;;;;;21.66;67.92;100961.56;1779283;80;21371;-79
2021/06/14 11:53:14;;;;;;;1.95;1.40;;;;;;;21.68;67.71;100972.84;1779090;80;21316;-75
2021/06/14 11:55:46;;;;;;;2.73;1.53;;;;;;;21.71;67.75;100972.77;1779524;80;21331;-72
2021/06/14 11:58:20;;;;;;;3.67;1.77;;;;;;;21.76;67.95;100976.86;1779212;80;21244;-78
2021/06/14 12:00:53;;;;;;;2.83;2.08;;;;;;;21.76;66.42;100983.33;1778923;80;21332;-77
2021/06/14 12:03:26;;;;;;;4.37;1.87;;;;;;;21.68;66.77;100979.05;1779184;80;21190;-78
2021/06/14 12:05:59;;;;;;;4.78;2.08;;;;;;;21.61;67.09;100984.33;1779101;79;21834;-76
2021/06/14 12:08:31;;;;;;;5.42;1.90;;;;;;;21.52;67.78;100985.70;1779220;80;21339;-73
2021/06/14 12:11:08;;;;;;;1.57;1.40;;;;;;;21.49;68.89;100986.94;1779220;80;21786;-74